sensor_id;sensor_type;location;lat;lon;timestamp;temperature;humidity
2907;DHT22;1463;51.070;16.998;2023-12-20T00:02:00;8.40;99.90
2907;DHT22;1463;51.070;16.998;2023-12-20T00:04:28;8.40;99.90
2907;DHT22;1463;51.070;16.998;2023-12-20T00:06:54;8.30;99.90
2907;DHT22;1463;51.070;16.998;2023-12-20T00:09:21;8.40;99.90
2907;DHT22;1463;51.070;16.998;2023-12-20T00:11:49;8.40;99.90
2907;DHT22;1463;51.070;16.998;2023-12-20T00:14:16;8.30;99.90
2907;DHT22;1463;51.070;16.998;2023-12-20T00:16:42;8.20;99.90
2907;DHT22;1463;51.070;16.998;2023-12-20T00:19:09;8.20;99.90
2907;DHT22;1463;51.070;16.998;2023-12-20T00:21:35;8.40;99.90
2907;DHT22;1463;51.070;16.998;2023-12-20T00:24:04;8.40;99.90
2907;DHT22;1463;51.070;16.998;2023-12-20T00:26:34;8.30;99.90
2907;DHT22;1463;51.070;16.998;2023-12-20T00:29:02;8.40;99.90
2907;DHT22;1463;51.070;16.998;2023-12-20T00:31:29;8.20;99.90
2907;DHT22;1463;51.070;16.998;2023-12-20T00:33:55;8.20;99.90
2907;DHT22;1463;51.070;16.998;2023-12-20T00:36:22;8.30;99.90
2907;DHT22;1463;51.070;16.998;2023-12-20T00:38:49;8.30;99.90
2907;DHT22;1463;51.070;16.998;2023-12-20T00:41:16;8.20;99.90
2907;DHT22;1463;51.070;16.998;2023-12-20T00:43:43;8.20;99.90
2907;DHT22;1463;51.070;16.998;2023-12-20T00:46:11;8.20;99.90
2907;DHT22;1463;51.070;16.998;2023-12-20T00:48:37;8.20;99.90
2907;DHT22;1463;51.070;16.998;2023-12-20T00:51:04;8.20;99.90
2907;DHT22;1463;51.070;16.998;2023-12-20T00:53:31;8.30;99.90
2907;DHT22;1463;51.070;16.998;2023-12-20T00:55:57;8.40;99.90
2907;DHT22;1463;51.070;16.998;2023-12-20T00:58:24;8.20;99.90
2907;DHT22;1463;51.070;16.998;2023-12-20T01:00:52;8.20;99.90
2907;DHT22;1463;51.070;16.998;2023-12-20T01:03:20;8.20;99.90
2907;DHT22;1463;51.070;16.998;2023-12-20T01:05:47;8.20;99.90
2907;DHT22;1463;51.070;16.998;2023-12-20T01:08:13;8.30;99.90
2907;DHT22;1463;51.070;16.998;2023-12-20T01:10:40;8.30;99.90
2907;DHT22;1463;51.070;16.998;2023-12-20T01:13:07;8.20;99.90
2907;DHT22;1463;51.070;16.998;2023-12-20T01:15:34;8.20;99.90
2907;DHT22;1463;51.070;16.998;2023-12-20T01:18:01;8.10;99.90
2907;DHT22;1463;51.070;16.998;2023-12-20T01:20:29;8.20;99.90
2907;DHT22;1463;51.070;16.998;2023-12-20T01:22:56;8.20;99.90
2907;DHT22;1463;51.070;16.998;2023-12-20T01:25:22;8.20;99.90
2907;DHT22;1463;51.070;16.998;2023-12-20T01:27:49;8.20;99.90
2907;DHT22;1463;51.070;16.998;2023-12-20T01:30:16;8.20;99.90
2907;DHT22;1463;51.070;16.998;2023-12-20T01:32:43;8.20;99.90
2907;DHT22;1463;51.070;16.998;2023-12-20T01:35:09;8.10;99.90
2907;DHT22;1463;51.070;16.998;2023-12-20T01:37:39;8.20;99.90
2907;DHT22;1463;51.070;16.998;2023-12-20T01:40:06;8.20;99.90
2907;DHT22;1463;51.070;16.998;2023-12-20T01:42:33;8.10;99.90
2907;DHT22;1463;51.070;16.998;2023-12-20T01:45:00;8.20;99.90
2907;DHT22;1463;51.070;16.998;2023-12-20T01:47:27;8.20;99.90
2907;DHT22;1463;51.070;16.998;2023-12-20T01:49:54;8.20;99.90
2907;DHT22;1463;51.070;16.998;2023-12-20T01:52:22;8.30;99.90
2907;DHT22;1463;51.070;16.998;2023-12-20T01:54:51;8.20;99.90
2907;DHT22;1463;51.070;16.998;2023-12-20T01:57:20;8.20;99.90
2907;DHT22;1463;51.070;16.998;2023-12-20T01:59:47;8.20;99.90
2907;DHT22;1463;51.070;16.998;2023-12-20T02:02:14;8.20;99.90
2907;DHT22;1463;51.070;16.998;2023-12-20T02:04:41;8.10;99.90
2907;DHT22;1463;51.070;16.998;2023-12-20T02:07:08;8.10;99.90
2907;DHT22;1463;51.070;16.998;2023-12-20T02:09:36;8.10;99.90
2907;DHT22;1463;51.070;16.998;2023-12-20T02:12:05;8.10;99.90
2907;DHT22;1463;51.070;16.998;2023-12-20T02:14:35;8.10;99.90
2907;DHT22;1463;51.070;16.998;2023-12-20T02:17:02;8.10;99.90
2907;DHT22;1463;51.070;16.998;2023-12-20T02:19:28;8.10;99.90
2907;DHT22;1463;51.070;16.998;2023-12-20T02:22:07;8.20;99.90
2907;DHT22;1463;51.070;16.998;2023-12-20T02:24:34;8.20;99.90
2907;DHT22;1463;51.070;16.998;2023-12-20T02:27:00;8.20;99.90
2907;DHT22;1463;51.070;16.998;2023-12-20T02:29:27;8.20;99.90
2907;DHT22;1463;51.070;16.998;2023-12-20T02:31:56;8.20;99.90
2907;DHT22;1463;51.070;16.998;2023-12-20T02:34:23;8.30;99.90
2907;DHT22;1463;51.070;16.998;2023-12-20T02:36:50;8.10;99.90
2907;DHT22;1463;51.070;16.998;2023-12-20T02:39:19;8.20;99.90
2907;DHT22;1463;51.070;16.998;2023-12-20T02:41:45;8.10;99.90
2907;DHT22;1463;51.070;16.998;2023-12-20T02:44:12;8.20;99.90
2907;DHT22;1463;51.070;16.998;2023-12-20T02:46:39;8.20;99.90
2907;DHT22;1463;51.070;16.998;2023-12-20T02:49:06;8.00;99.90
2907;DHT22;1463;51.070;16.998;2023-12-20T02:51:32;7.90;99.90
2907;DHT22;1463;51.070;16.998;2023-12-20T02:53:59;8.00;99.90
2907;DHT22;1463;51.070;16.998;2023-12-20T02:56:27;7.90;99.90
2907;DHT22;1463;51.070;16.998;2023-12-20T02:58:53;7.90;99.90
2907;DHT22;1463;51.070;16.998;2023-12-20T03:01:21;8.00;99.90
2907;DHT22;1463;51.070;16.998;2023-12-20T03:03:48;7.90;99.90
2907;DHT22;1463;51.070;16.998;2023-12-20T03:06:16;8.00;99.90
2907;DHT22;1463;51.070;16.998;2023-12-20T03:08:44;7.80;99.90
2907;DHT22;1463;51.070;16.998;2023-12-20T03:11:10;7.70;99.90
2907;DHT22;1463;51.070;16.998;2023-12-20T03:13:38;7.80;99.90
2907;DHT22;1463;51.070;16.998;2023-12-20T03:16:08;7.80;99.90
2907;DHT22;1463;51.070;16.998;2023-12-20T03:18:35;7.90;99.90
2907;DHT22;1463;51.070;16.998;2023-12-20T03:21:02;7.90;99.90
2907;DHT22;1463;51.070;16.998;2023-12-20T03:23:29;7.80;99.90
2907;DHT22;1463;51.070;16.998;2023-12-20T03:25:56;7.70;99.90
2907;DHT22;1463;51.070;16.998;2023-12-20T03:28:22;7.80;99.90
2907;DHT22;1463;51.070;16.998;2023-12-20T03:30:50;7.60;99.90
2907;DHT22;1463;51.070;16.998;2023-12-20T03:33:17;7.60;99.90
2907;DHT22;1463;51.070;16.998;2023-12-20T03:35:43;7.60;99.90
2907;DHT22;1463;51.070;16.998;2023-12-20T03:38:10;7.60;99.90
2907;DHT22;1463;51.070;16.998;2023-12-20T03:40:37;7.50;99.90
2907;DHT22;1463;51.070;16.998;2023-12-20T03:43:03;7.60;99.90
2907;DHT22;1463;51.070;16.998;2023-12-20T03:45:30;7.50;99.90
2907;DHT22;1463;51.070;16.998;2023-12-20T03:47:58;7.60;99.90
2907;DHT22;1463;51.070;16.998;2023-12-20T03:50:25;7.50;99.90
2907;DHT22;1463;51.070;16.998;2023-12-20T03:52:52;7.50;99.90
2907;DHT22;1463;51.070;16.998;2023-12-20T03:55:19;7.50;99.90
2907;DHT22;1463;51.070;16.998;2023-12-20T03:57:45;7.40;99.90
2907;DHT22;1463;51.070;16.998;2023-12-20T04:00:12;7.50;99.90
2907;DHT22;1463;51.070;16.998;2023-12-20T04:02:41;7.60;99.90
2907;DHT22;1463;51.070;16.998;2023-12-20T04:05:09;7.50;99.90
2907;DHT22;1463;51.070;16.998;2023-12-20T04:07:36;7.60;99.90
2907;DHT22;1463;51.070;16.998;2023-12-20T04:10:03;7.40;99.90
2907;DHT22;1463;51.070;16.998;2023-12-20T04:12:31;7.50;99.90
2907;DHT22;1463;51.070;16.998;2023-12-20T04:14:57;7.50;99.90
2907;DHT22;1463;51.070;16.998;2023-12-20T04:17:24;7.50;99.90
2907;DHT22;1463;51.070;16.998;2023-12-20T04:19:51;7.40;99.90
2907;DHT22;1463;51.070;16.998;2023-12-20T04:22:19;7.40;99.90
2907;DHT22;1463;51.070;16.998;2023-12-20T04:24:46;7.40;99.90
2907;DHT22;1463;51.070;16.998;2023-12-20T04:27:12;7.30;99.90
2907;DHT22;1463;51.070;16.998;2023-12-20T04:29:39;7.20;99.90
2907;DHT22;1463;51.070;16.998;2023-12-20T04:32:06;7.20;99.90
2907;DHT22;1463;51.070;16.998;2023-12-20T04:34:32;7.20;99.90
2907;DHT22;1463;51.070;16.998;2023-12-20T04:36:59;7.10;99.90
2907;DHT22;1463;51.070;16.998;2023-12-20T04:39:28;7.30;99.90
2907;DHT22;1463;51.070;16.998;2023-12-20T04:41:55;7.20;99.90
2907;DHT22;1463;51.070;16.998;2023-12-20T04:44:21;7.20;99.90
2907;DHT22;1463;51.070;16.998;2023-12-20T04:46:49;7.10;99.90
2907;DHT22;1463;51.070;16.998;2023-12-20T04:49:15;7.10;99.90
2907;DHT22;1463;51.070;16.998;2023-12-20T04:51:42;7.10;99.90
2907;DHT22;1463;51.070;16.998;2023-12-20T04:54:09;7.00;99.90
2907;DHT22;1463;51.070;16.998;2023-12-20T04:56:37;7.00;99.90
2907;DHT22;1463;51.070;16.998;2023-12-20T04:59:04;6.90;99.90
2907;DHT22;1463;51.070;16.998;2023-12-20T05:01:31;6.90;99.90
2907;DHT22;1463;51.070;16.998;2023-12-20T05:03:57;6.90;99.90
2907;DHT22;1463;51.070;16.998;2023-12-20T05:06:24;7.00;99.90
2907;DHT22;1463;51.070;16.998;2023-12-20T05:08:51;7.10;99.90
2907;DHT22;1463;51.070;16.998;2023-12-20T05:11:17;7.10;99.90
2907;DHT22;1463;51.070;16.998;2023-12-20T05:13:45;7.10;99.90
2907;DHT22;1463;51.070;16.998;2023-12-20T05:16:12;7.20;99.90
2907;DHT22;1463;51.070;16.998;2023-12-20T05:18:39;7.20;99.90
2907;DHT22;1463;51.070;16.998;2023-12-20T05:21:06;7.10;99.90
2907;DHT22;1463;51.070;16.998;2023-12-20T05:23:33;7.20;99.90
2907;DHT22;1463;51.070;16.998;2023-12-20T05:26:00;7.20;99.90
2907;DHT22;1463;51.070;16.998;2023-12-20T05:28:26;7.20;99.90
2907;DHT22;1463;51.070;16.998;2023-12-20T05:30:55;7.20;99.90
2907;DHT22;1463;51.070;16.998;2023-12-20T05:33:21;7.20;99.90
2907;DHT22;1463;51.070;16.998;2023-12-20T05:35:48;7.30;99.90
2907;DHT22;1463;51.070;16.998;2023-12-20T05:38:14;7.30;99.90
2907;DHT22;1463;51.070;16.998;2023-12-20T05:40:42;7.20;99.90
2907;DHT22;1463;51.070;16.998;2023-12-20T05:43:08;7.40;99.90
2907;DHT22;1463;51.070;16.998;2023-12-20T05:45:35;7.20;99.90
2907;DHT22;1463;51.070;16.998;2023-12-20T05:48:04;7.30;99.90
2907;DHT22;1463;51.070;16.998;2023-12-20T05:50:30;7.40;99.90
2907;DHT22;1463;51.070;16.998;2023-12-20T05:52:57;7.30;99.90
2907;DHT22;1463;51.070;16.998;2023-12-20T05:55:24;7.40;99.90
2907;DHT22;1463;51.070;16.998;2023-12-20T05:57:50;7.30;99.90
2907;DHT22;1463;51.070;16.998;2023-12-20T06:00:18;7.20;99.90
2907;DHT22;1463;51.070;16.998;2023-12-20T06:02:44;7.20;99.90
2907;DHT22;1463;51.070;16.998;2023-12-20T06:05:12;7.20;99.90
2907;DHT22;1463;51.070;16.998;2023-12-20T06:07:39;7.20;99.90
2907;DHT22;1463;51.070;16.998;2023-12-20T06:10:06;7.10;99.90
2907;DHT22;1463;51.070;16.998;2023-12-20T06:12:33;7.10;99.90
2907;DHT22;1463;51.070;16.998;2023-12-20T06:15:01;7.10;99.90
2907;DHT22;1463;51.070;16.998;2023-12-20T06:17:28;7.10;99.90
2907;DHT22;1463;51.070;16.998;2023-12-20T06:19:56;7.20;99.90
2907;DHT22;1463;51.070;16.998;2023-12-20T06:22:24;7.20;99.90
2907;DHT22;1463;51.070;16.998;2023-12-20T06:24:50;7.10;99.90
2907;DHT22;1463;51.070;16.998;2023-12-20T06:27:17;7.10;99.90
2907;DHT22;1463;51.070;16.998;2023-12-20T06:29:44;7.20;99.90
2907;DHT22;1463;51.070;16.998;2023-12-20T06:32:10;7.20;99.90
2907;DHT22;1463;51.070;16.998;2023-12-20T06:34:37;7.20;99.90
2907;DHT22;1463;51.070;16.998;2023-12-20T06:37:04;7.30;99.90
2907;DHT22;1463;51.070;16.998;2023-12-20T06:39:33;7.40;99.90
2907;DHT22;1463;51.070;16.998;2023-12-20T06:42:01;7.30;99.90
2907;DHT22;1463;51.070;16.998;2023-12-20T06:44:27;7.20;99.90
2907;DHT22;1463;51.070;16.998;2023-12-20T06:46:54;7.20;99.90
2907;DHT22;1463;51.070;16.998;2023-12-20T06:49:21;7.10;99.90
2907;DHT22;1463;51.070;16.998;2023-12-20T06:51:47;7.00;99.90
2907;DHT22;1463;51.070;16.998;2023-12-20T06:54:14;7.00;99.90
2907;DHT22;1463;51.070;16.998;2023-12-20T06:56:42;7.00;99.90
2907;DHT22;1463;51.070;16.998;2023-12-20T06:59:08;7.10;99.90
2907;DHT22;1463;51.070;16.998;2023-12-20T07:01:35;6.90;99.90
2907;DHT22;1463;51.070;16.998;2023-12-20T07:04:02;6.90;99.90
2907;DHT22;1463;51.070;16.998;2023-12-20T07:06:29;6.90;99.90
2907;DHT22;1463;51.070;16.998;2023-12-20T07:08:55;6.90;99.90
2907;DHT22;1463;51.070;16.998;2023-12-20T07:11:22;6.90;99.90
2907;DHT22;1463;51.070;16.998;2023-12-20T07:13:51;6.80;99.90
2907;DHT22;1463;51.070;16.998;2023-12-20T07:16:17;6.80;99.90
2907;DHT22;1463;51.070;16.998;2023-12-20T07:18:44;6.70;99.90
2907;DHT22;1463;51.070;16.998;2023-12-20T07:21:10;6.80;99.90
2907;DHT22;1463;51.070;16.998;2023-12-20T07:23:37;6.80;99.90
2907;DHT22;1463;51.070;16.998;2023-12-20T07:26:04;6.90;99.90
2907;DHT22;1463;51.070;16.998;2023-12-20T07:28:30;6.80;99.90
2907;DHT22;1463;51.070;16.998;2023-12-20T07:30:58;6.70;99.90
2907;DHT22;1463;51.070;16.998;2023-12-20T07:33:25;6.80;99.90
2907;DHT22;1463;51.070;16.998;2023-12-20T07:35:52;6.80;99.90
2907;DHT22;1463;51.070;16.998;2023-12-20T07:38:18;6.80;99.90
2907;DHT22;1463;51.070;16.998;2023-12-20T07:40:45;6.70;99.90
2907;DHT22;1463;51.070;16.998;2023-12-20T07:43:12;6.60;99.90
2907;DHT22;1463;51.070;16.998;2023-12-20T07:45:38;6.80;99.90
2907;DHT22;1463;51.070;16.998;2023-12-20T07:48:07;6.60;99.90
2907;DHT22;1463;51.070;16.998;2023-12-20T07:50:34;6.70;99.90
2907;DHT22;1463;51.070;16.998;2023-12-20T07:53:01;6.60;99.90
2907;DHT22;1463;51.070;16.998;2023-12-20T07:55:31;6.50;99.90
2907;DHT22;1463;51.070;16.998;2023-12-20T07:57:58;6.60;99.90
2907;DHT22;1463;51.070;16.998;2023-12-20T08:00:25;6.80;99.90
2907;DHT22;1463;51.070;16.998;2023-12-20T08:02:52;6.70;99.90
2907;DHT22;1463;51.070;16.998;2023-12-20T08:05:20;6.70;99.90
2907;DHT22;1463;51.070;16.998;2023-12-20T08:07:47;6.60;99.90
2907;DHT22;1463;51.070;16.998;2023-12-20T08:10:13;6.60;99.90
2907;DHT22;1463;51.070;16.998;2023-12-20T08:12:40;6.70;99.90
2907;DHT22;1463;51.070;16.998;2023-12-20T08:15:07;6.50;99.90
2907;DHT22;1463;51.070;16.998;2023-12-20T08:17:34;6.60;99.90
2907;DHT22;1463;51.070;16.998;2023-12-20T08:20:00;6.60;99.90
2907;DHT22;1463;51.070;16.998;2023-12-20T08:22:28;6.60;99.90
2907;DHT22;1463;51.070;16.998;2023-12-20T08:24:57;6.50;99.90
2907;DHT22;1463;51.070;16.998;2023-12-20T08:27:24;6.50;99.90
2907;DHT22;1463;51.070;16.998;2023-12-20T08:29:52;6.50;99.90
2907;DHT22;1463;51.070;16.998;2023-12-20T08:32:19;6.50;99.90
2907;DHT22;1463;51.070;16.998;2023-12-20T08:34:48;6.50;99.90
2907;DHT22;1463;51.070;16.998;2023-12-20T08:37:15;6.60;99.90
2907;DHT22;1463;51.070;16.998;2023-12-20T08:39:43;6.50;99.90
2907;DHT22;1463;51.070;16.998;2023-12-20T08:42:10;6.60;99.90
2907;DHT22;1463;51.070;16.998;2023-12-20T08:44:37;6.60;99.90
2907;DHT22;1463;51.070;16.998;2023-12-20T08:47:03;6.60;99.90
2907;DHT22;1463;51.070;16.998;2023-12-20T08:49:30;6.60;99.90
2907;DHT22;1463;51.070;16.998;2023-12-20T08:51:57;6.70;99.90
2907;DHT22;1463;51.070;16.998;2023-12-20T08:54:24;6.80;99.90
2907;DHT22;1463;51.070;16.998;2023-12-20T08:56:52;6.80;99.90
2907;DHT22;1463;51.070;16.998;2023-12-20T08:59:21;6.60;99.90
2907;DHT22;1463;51.070;16.998;2023-12-20T09:01:48;6.60;99.90
2907;DHT22;1463;51.070;16.998;2023-12-20T09:04:19;6.70;99.90
2907;DHT22;1463;51.070;16.998;2023-12-20T09:06:46;6.80;99.90
2907;DHT22;1463;51.070;16.998;2023-12-20T09:09:12;6.90;99.90
2907;DHT22;1463;51.070;16.998;2023-12-20T09:11:40;6.70;99.90
2907;DHT22;1463;51.070;16.998;2023-12-20T09:14:08;6.60;99.90
2907;DHT22;1463;51.070;16.998;2023-12-20T09:16:35;6.60;99.90
2907;DHT22;1463;51.070;16.998;2023-12-20T09:19:02;7.00;99.90
2907;DHT22;1463;51.070;16.998;2023-12-20T09:21:29;6.80;99.90
2907;DHT22;1463;51.070;16.998;2023-12-20T09:23:55;6.90;99.90
2907;DHT22;1463;51.070;16.998;2023-12-20T09:26:22;7.00;99.90
2907;DHT22;1463;51.070;16.998;2023-12-20T09:28:49;7.00;99.90
2907;DHT22;1463;51.070;16.998;2023-12-20T09:31:17;7.10;99.90
2907;DHT22;1463;51.070;16.998;2023-12-20T09:33:44;7.00;99.90
2907;DHT22;1463;51.070;16.998;2023-12-20T09:36:11;7.00;99.90
2907;DHT22;1463;51.070;16.998;2023-12-20T09:38:37;7.10;99.90
2907;DHT22;1463;51.070;16.998;2023-12-20T09:41:04;7.20;99.90
2907;DHT22;1463;51.070;16.998;2023-12-20T09:43:32;7.40;99.90
2907;DHT22;1463;51.070;16.998;2023-12-20T09:46:03;7.50;99.90
2907;DHT22;1463;51.070;16.998;2023-12-20T09:48:34;7.30;99.90
2907;DHT22;1463;51.070;16.998;2023-12-20T09:51:03;7.60;99.90
2907;DHT22;1463;51.070;16.998;2023-12-20T09:53:31;7.30;99.90
2907;DHT22;1463;51.070;16.998;2023-12-20T09:55:59;7.40;99.90
2907;DHT22;1463;51.070;16.998;2023-12-20T09:58:26;7.30;99.90
2907;DHT22;1463;51.070;16.998;2023-12-20T10:00:54;7.20;99.90
2907;DHT22;1463;51.070;16.998;2023-12-20T10:03:24;7.20;99.90
2907;DHT22;1463;51.070;16.998;2023-12-20T10:05:55;7.40;99.90
2907;DHT22;1463;51.070;16.998;2023-12-20T10:08:23;7.30;99.90
2907;DHT22;1463;51.070;16.998;2023-12-20T10:10:50;7.30;99.90
2907;DHT22;1463;51.070;16.998;2023-12-20T10:13:17;7.40;99.90
2907;DHT22;1463;51.070;16.998;2023-12-20T10:15:44;7.50;99.90
2907;DHT22;1463;51.070;16.998;2023-12-20T10:18:12;7.40;99.90
2907;DHT22;1463;51.070;16.998;2023-12-20T10:20:40;7.50;99.90
2907;DHT22;1463;51.070;16.998;2023-12-20T10:23:10;7.40;99.90
2907;DHT22;1463;51.070;16.998;2023-12-20T10:25:37;7.30;99.90
2907;DHT22;1463;51.070;16.998;2023-12-20T10:28:11;7.30;99.90
2907;DHT22;1463;51.070;16.998;2023-12-20T10:30:39;7.40;99.90
2907;DHT22;1463;51.070;16.998;2023-12-20T10:33:06;7.40;99.90
2907;DHT22;1463;51.070;16.998;2023-12-20T10:35:33;7.30;99.90
2907;DHT22;1463;51.070;16.998;2023-12-20T10:38:04;7.30;99.90
2907;DHT22;1463;51.070;16.998;2023-12-20T10:40:34;7.30;99.90
2907;DHT22;1463;51.070;16.998;2023-12-20T10:43:02;7.20;99.90
2907;DHT22;1463;51.070;16.998;2023-12-20T10:45:29;7.40;99.90
2907;DHT22;1463;51.070;16.998;2023-12-20T10:47:56;7.30;99.90
2907;DHT22;1463;51.070;16.998;2023-12-20T10:50:25;7.30;99.90
2907;DHT22;1463;51.070;16.998;2023-12-20T10:52:54;7.20;99.90
2907;DHT22;1463;51.070;16.998;2023-12-20T10:55:21;7.20;99.90
2907;DHT22;1463;51.070;16.998;2023-12-20T10:57:51;7.20;99.90
2907;DHT22;1463;51.070;16.998;2023-12-20T11:00:18;7.40;99.90
2907;DHT22;1463;51.070;16.998;2023-12-20T11:02:45;7.80;99.90
2907;DHT22;1463;51.070;16.998;2023-12-20T11:05:22;8.10;99.90
2907;DHT22;1463;51.070;16.998;2023-12-20T11:07:58;8.20;99.90
2907;DHT22;1463;51.070;16.998;2023-12-20T11:10:31;8.20;99.90
2907;DHT22;1463;51.070;16.998;2023-12-20T11:13:05;8.50;99.90
2907;DHT22;1463;51.070;16.998;2023-12-20T11:15:35;8.50;99.90
2907;DHT22;1463;51.070;16.998;2023-12-20T11:18:03;8.50;99.90
2907;DHT22;1463;51.070;16.998;2023-12-20T11:20:36;8.80;99.90
2907;DHT22;1463;51.070;16.998;2023-12-20T11:23:04;8.90;99.90
2907;DHT22;1463;51.070;16.998;2023-12-20T11:25:46;9.10;99.90
2907;DHT22;1463;51.070;16.998;2023-12-20T11:28:13;9.40;99.90
2907;DHT22;1463;51.070;16.998;2023-12-20T11:30:46;9.60;99.90
2907;DHT22;1463;51.070;16.998;2023-12-20T11:33:14;9.70;99.90
2907;DHT22;1463;51.070;16.998;2023-12-20T11:35:41;9.80;99.90
2907;DHT22;1463;51.070;16.998;2023-12-20T11:38:08;10.10;99.90
2907;DHT22;1463;51.070;16.998;2023-12-20T11:40:36;10.20;99.90
2907;DHT22;1463;51.070;16.998;2023-12-20T11:43:03;10.00;99.90
2907;DHT22;1463;51.070;16.998;2023-12-20T11:45:31;9.70;99.90
2907;DHT22;1463;51.070;16.998;2023-12-20T11:47:59;9.30;99.90
2907;DHT22;1463;51.070;16.998;2023-12-20T11:50:27;9.20;99.90
2907;DHT22;1463;51.070;16.998;2023-12-20T11:52:55;9.00;99.90
2907;DHT22;1463;51.070;16.998;2023-12-20T11:55:22;9.00;99.90
2907;DHT22;1463;51.070;16.998;2023-12-20T11:57:49;8.90;99.90
2907;DHT22;1463;51.070;16.998;2023-12-20T12:00:17;8.80;99.90
2907;DHT22;1463;51.070;16.998;2023-12-20T12:03:00;8.60;99.90
2907;DHT22;1463;51.070;16.998;2023-12-20T12:05:28;8.70;99.90
2907;DHT22;1463;51.070;16.998;2023-12-20T12:07:56;8.70;99.90
2907;DHT22;1463;51.070;16.998;2023-12-20T12:10:23;8.70;99.90
2907;DHT22;1463;51.070;16.998;2023-12-20T12:12:50;8.70;99.90
2907;DHT22;1463;51.070;16.998;2023-12-20T12:15:16;8.60;99.90
2907;DHT22;1463;51.070;16.998;2023-12-20T12:17:43;8.60;99.90
2907;DHT22;1463;51.070;16.998;2023-12-20T12:20:11;8.50;99.90
2907;DHT22;1463;51.070;16.998;2023-12-20T12:22:38;8.60;99.90
2907;DHT22;1463;51.070;16.998;2023-12-20T12:25:12;8.50;99.90
2907;DHT22;1463;51.070;16.998;2023-12-20T12:27:40;8.30;99.90
2907;DHT22;1463;51.070;16.998;2023-12-20T12:30:08;8.30;99.90
2907;DHT22;1463;51.070;16.998;2023-12-20T12:32:36;8.40;99.90
2907;DHT22;1463;51.070;16.998;2023-12-20T12:35:04;8.50;99.90
2907;DHT22;1463;51.070;16.998;2023-12-20T12:37:33;8.40;99.90
2907;DHT22;1463;51.070;16.998;2023-12-20T12:40:00;8.40;99.90
2907;DHT22;1463;51.070;16.998;2023-12-20T12:42:28;8.40;99.90
2907;DHT22;1463;51.070;16.998;2023-12-20T12:44:55;8.30;99.90
2907;DHT22;1463;51.070;16.998;2023-12-20T12:47:21;8.20;99.90
2907;DHT22;1463;51.070;16.998;2023-12-20T12:49:51;8.30;99.90
2907;DHT22;1463;51.070;16.998;2023-12-20T12:52:18;8.20;99.90
2907;DHT22;1463;51.070;16.998;2023-12-20T12:54:46;8.20;99.90
2907;DHT22;1463;51.070;16.998;2023-12-20T12:57:14;8.20;99.90
2907;DHT22;1463;51.070;16.998;2023-12-20T12:59:41;8.10;99.90
2907;DHT22;1463;51.070;16.998;2023-12-20T13:02:09;8.20;99.90
2907;DHT22;1463;51.070;16.998;2023-12-20T13:04:35;8.20;99.90
2907;DHT22;1463;51.070;16.998;2023-12-20T13:07:02;8.20;99.90
2907;DHT22;1463;51.070;16.998;2023-12-20T13:09:29;8.10;99.90
2907;DHT22;1463;51.070;16.998;2023-12-20T13:11:57;8.00;99.90
2907;DHT22;1463;51.070;16.998;2023-12-20T13:14:25;8.10;99.90
2907;DHT22;1463;51.070;16.998;2023-12-20T13:16:51;8.10;99.90
2907;DHT22;1463;51.070;16.998;2023-12-20T13:19:18;8.00;99.90
2907;DHT22;1463;51.070;16.998;2023-12-20T13:21:45;8.10;99.90
2907;DHT22;1463;51.070;16.998;2023-12-20T13:24:11;8.00;99.90
2907;DHT22;1463;51.070;16.998;2023-12-20T13:26:38;8.10;99.90
2907;DHT22;1463;51.070;16.998;2023-12-20T13:29:06;8.10;99.90
2907;DHT22;1463;51.070;16.998;2023-12-20T13:31:32;8.00;99.90
2907;DHT22;1463;51.070;16.998;2023-12-20T13:34:01;8.00;99.90
2907;DHT22;1463;51.070;16.998;2023-12-20T13:36:28;7.90;99.90
2907;DHT22;1463;51.070;16.998;2023-12-20T13:38:55;8.00;99.90
2907;DHT22;1463;51.070;16.998;2023-12-20T13:41:22;8.00;99.90
2907;DHT22;1463;51.070;16.998;2023-12-20T13:43:48;7.90;99.90
2907;DHT22;1463;51.070;16.998;2023-12-20T13:46:16;8.00;99.90
2907;DHT22;1463;51.070;16.998;2023-12-20T13:48:43;8.00;99.90
2907;DHT22;1463;51.070;16.998;2023-12-20T13:51:10;8.00;99.90
2907;DHT22;1463;51.070;16.998;2023-12-20T13:53:37;8.00;99.90
2907;DHT22;1463;51.070;16.998;2023-12-20T13:56:05;8.00;99.90
2907;DHT22;1463;51.070;16.998;2023-12-20T13:58:31;8.00;99.90
2907;DHT22;1463;51.070;16.998;2023-12-20T14:00:58;8.00;99.90
2907;DHT22;1463;51.070;16.998;2023-12-20T14:03:26;8.00;99.90
2907;DHT22;1463;51.070;16.998;2023-12-20T14:05:53;7.90;99.90
2907;DHT22;1463;51.070;16.998;2023-12-20T14:08:19;8.00;99.90
2907;DHT22;1463;51.070;16.998;2023-12-20T14:10:46;8.30;99.90
2907;DHT22;1463;51.070;16.998;2023-12-20T14:13:14;8.30;99.90
2907;DHT22;1463;51.070;16.998;2023-12-20T14:15:43;8.20;99.90
2907;DHT22;1463;51.070;16.998;2023-12-20T14:18:09;8.20;99.90
2907;DHT22;1463;51.070;16.998;2023-12-20T14:20:39;8.30;99.90
2907;DHT22;1463;51.070;16.998;2023-12-20T14:23:07;8.30;99.90
2907;DHT22;1463;51.070;16.998;2023-12-20T14:25:35;8.50;99.90
2907;DHT22;1463;51.070;16.998;2023-12-20T14:28:02;8.50;99.90
2907;DHT22;1463;51.070;16.998;2023-12-20T14:30:29;8.50;99.90
2907;DHT22;1463;51.070;16.998;2023-12-20T14:32:56;8.50;99.90
2907;DHT22;1463;51.070;16.998;2023-12-20T14:35:23;8.50;99.90
2907;DHT22;1463;51.070;16.998;2023-12-20T14:37:51;8.50;99.90
2907;DHT22;1463;51.070;16.998;2023-12-20T14:40:18;8.40;99.90
2907;DHT22;1463;51.070;16.998;2023-12-20T14:42:46;8.40;99.90
2907;DHT22;1463;51.070;16.998;2023-12-20T14:45:13;8.40;99.90
2907;DHT22;1463;51.070;16.998;2023-12-20T14:47:41;8.50;99.90
2907;DHT22;1463;51.070;16.998;2023-12-20T14:50:08;8.50;99.90
2907;DHT22;1463;51.070;16.998;2023-12-20T14:52:36;8.50;99.90
2907;DHT22;1463;51.070;16.998;2023-12-20T14:55:04;8.40;99.90
2907;DHT22;1463;51.070;16.998;2023-12-20T14:57:32;8.40;99.90
2907;DHT22;1463;51.070;16.998;2023-12-20T14:59:58;8.40;99.90
2907;DHT22;1463;51.070;16.998;2023-12-20T15:02:25;8.40;99.90
2907;DHT22;1463;51.070;16.998;2023-12-20T15:04:55;8.30;99.90
2907;DHT22;1463;51.070;16.998;2023-12-20T15:07:22;8.30;99.90
2907;DHT22;1463;51.070;16.998;2023-12-20T15:09:49;8.30;99.90
2907;DHT22;1463;51.070;16.998;2023-12-20T15:12:17;8.30;99.90
2907;DHT22;1463;51.070;16.998;2023-12-20T15:14:44;8.30;99.90
2907;DHT22;1463;51.070;16.998;2023-12-20T15:17:11;8.40;99.90
2907;DHT22;1463;51.070;16.998;2023-12-20T15:19:41;8.40;99.90
2907;DHT22;1463;51.070;16.998;2023-12-20T15:22:08;8.40;99.90
2907;DHT22;1463;51.070;16.998;2023-12-20T15:24:36;8.40;99.90
2907;DHT22;1463;51.070;16.998;2023-12-20T15:27:05;8.40;99.90
2907;DHT22;1463;51.070;16.998;2023-12-20T15:29:34;8.40;99.90
2907;DHT22;1463;51.070;16.998;2023-12-20T15:32:01;8.40;99.90
2907;DHT22;1463;51.070;16.998;2023-12-20T15:34:28;8.30;99.90
2907;DHT22;1463;51.070;16.998;2023-12-20T15:36:55;8.30;99.90
2907;DHT22;1463;51.070;16.998;2023-12-20T15:39:21;8.30;99.90
2907;DHT22;1463;51.070;16.998;2023-12-20T15:41:48;8.30;99.90
2907;DHT22;1463;51.070;16.998;2023-12-20T15:44:16;8.30;99.90
2907;DHT22;1463;51.070;16.998;2023-12-20T15:46:44;8.10;99.90
2907;DHT22;1463;51.070;16.998;2023-12-20T15:49:10;8.10;99.90
2907;DHT22;1463;51.070;16.998;2023-12-20T15:51:37;8.20;99.90
2907;DHT22;1463;51.070;16.998;2023-12-20T15:54:05;8.10;99.90
2907;DHT22;1463;51.070;16.998;2023-12-20T15:56:34;8.00;99.90
2907;DHT22;1463;51.070;16.998;2023-12-20T15:59:02;8.00;99.90
2907;DHT22;1463;51.070;16.998;2023-12-20T16:01:29;8.00;99.90
2907;DHT22;1463;51.070;16.998;2023-12-20T16:03:57;8.10;99.90